createdAt,value
2023-11-13T00:01:27.572Z,9.50
2023-11-13T00:03:56.548Z,9.18
2023-11-13T00:06:26.637Z,8.05
2023-11-13T00:08:55.358Z,8.50
2023-11-13T00:11:24.749Z,7.68
2023-11-13T00:13:53.540Z,9.73
2023-11-13T00:16:22.770Z,8.90
2023-11-13T00:18:51.800Z,8.77
2023-11-13T00:21:22.613Z,7.97
2023-11-13T00:23:51.452Z,6.93
2023-11-13T00:26:20.664Z,7.90
2023-11-13T00:28:54.213Z,8.77
2023-11-13T00:31:23.989Z,7.35
2023-11-13T00:33:53.190Z,7.70
2023-11-13T00:36:22.346Z,8.00
2023-11-13T00:38:51.407Z,8.10
2023-11-13T00:41:21.009Z,8.85
2023-11-13T00:43:49.830Z,7.22
2023-11-13T00:46:19.009Z,7.72
2023-11-13T00:48:47.767Z,9.05
2023-11-13T00:51:16.984Z,8.95
2023-11-13T00:53:45.788Z,8.02
2023-11-13T00:56:14.967Z,7.97
2023-11-13T00:58:43.699Z,6.80
2023-11-13T01:01:15.719Z,7.65
2023-11-13T01:03:44.714Z,8.50
2023-11-13T01:06:17.610Z,7.82
2023-11-13T01:08:46.589Z,8.32
2023-11-13T01:11:16.139Z,8.30
2023-11-13T01:13:44.960Z,7.57
2023-11-13T01:16:14.583Z,8.02
2023-11-13T01:18:43.507Z,7.32
2023-11-13T01:21:12.690Z,7.85
2023-11-13T01:23:41.585Z,7.05
2023-11-13T01:26:10.815Z,7.30
2023-11-13T01:28:39.653Z,7.70
2023-11-13T01:31:10.776Z,7.32
2023-11-13T01:33:40.460Z,7.20
2023-11-13T01:36:09.909Z,7.00
2023-11-13T01:38:38.693Z,7.07
2023-11-13T01:41:07.882Z,6.53
2023-11-13T01:43:36.878Z,8.30
2023-11-13T01:46:06.757Z,6.65
2023-11-13T01:48:35.592Z,6.35
2023-11-13T01:51:04.858Z,7.32
2023-11-13T01:53:33.667Z,6.43
2023-11-13T01:56:02.849Z,7.55
2023-11-13T01:58:31.743Z,6.78
2023-11-13T02:01:01.248Z,7.28
2023-11-13T02:03:30.231Z,7.18
2023-11-13T02:05:59.430Z,7.22
2023-11-13T02:08:28.197Z,6.72
2023-11-13T02:10:57.740Z,7.18
2023-11-13T02:13:26.583Z,6.80
2023-11-13T02:15:55.826Z,7.40
2023-11-13T02:18:24.578Z,6.18
2023-11-13T02:20:53.721Z,7.22
2023-11-13T02:23:22.536Z,6.85
2023-11-13T02:25:58.890Z,6.72
2023-11-13T02:28:28.302Z,6.50
2023-11-13T02:30:57.486Z,6.13
2023-11-13T02:33:26.319Z,7.43
2023-11-13T02:35:55.419Z,7.30
2023-11-13T02:38:24.189Z,6.95
2023-11-13T02:40:53.827Z,6.38
2023-11-13T02:43:22.686Z,6.82
2023-11-13T02:45:51.880Z,6.70
2023-11-13T02:48:20.868Z,6.70
2023-11-13T02:50:52.481Z,6.93
2023-11-13T02:53:22.677Z,6.63
2023-11-13T02:55:53.954Z,6.82
2023-11-13T02:58:22.863Z,6.72
2023-11-13T03:00:52.107Z,6.35
2023-11-13T03:03:21.793Z,6.15
2023-11-13T03:05:51.121Z,6.75
2023-11-13T03:08:19.898Z,7.45
2023-11-13T03:10:49.384Z,6.20
2023-11-13T03:13:18.263Z,5.75
2023-11-13T03:15:48.667Z,6.40
2023-11-13T03:18:18.579Z,6.80
2023-11-13T03:20:47.668Z,5.88
2023-11-13T03:23:16.398Z,6.55
2023-11-13T03:25:45.427Z,6.35
2023-11-13T03:28:14.894Z,6.30
2023-11-13T03:30:44.122Z,5.55
2023-11-13T03:33:12.863Z,5.80
2023-11-13T03:35:42.178Z,5.85
2023-11-13T03:38:10.898Z,6.20
2023-11-13T03:40:40.017Z,6.55
2023-11-13T03:43:08.790Z,6.30
2023-11-13T03:45:37.850Z,6.40
2023-11-13T03:48:06.780Z,5.85
2023-11-13T03:50:35.948Z,5.85
2023-11-13T03:53:05.103Z,5.95
2023-11-13T03:55:34.308Z,5.82
2023-11-13T03:58:03.217Z,6.20
2023-11-13T04:00:32.601Z,5.90
2023-11-13T04:03:01.382Z,5.47
2023-11-13T04:05:30.643Z,6.07
2023-11-13T04:07:59.499Z,6.30
2023-11-13T04:10:29.814Z,5.53
2023-11-13T04:12:58.720Z,5.57
2023-11-13T04:15:27.807Z,5.38
2023-11-13T04:17:56.885Z,5.45
2023-11-13T04:20:26.927Z,4.95
2023-11-13T04:22:56.627Z,6.03
2023-11-13T04:25:26.060Z,5.82
2023-11-13T04:27:54.771Z,6.05
2023-11-13T04:30:24.047Z,5.45
2023-11-13T04:32:53.090Z,6.75
2023-11-13T04:35:22.197Z,6.38
2023-11-13T04:37:50.968Z,6.18
2023-11-13T04:40:20.056Z,5.47
2023-11-13T04:42:48.819Z,5.47
2023-11-13T04:45:18.446Z,6.22
2023-11-13T04:47:47.348Z,6.35
2023-11-13T04:50:16.589Z,5.25
2023-11-13T04:52:45.425Z,6.30
2023-11-13T04:55:14.593Z,5.93
2023-11-13T04:57:43.425Z,5.78
2023-11-13T05:00:13.773Z,4.72
2023-11-13T05:02:43.648Z,5.45
2023-11-13T05:05:13.382Z,5.85
2023-11-13T05:07:42.207Z,4.97
2023-11-13T05:10:12.304Z,5.82
2023-11-13T05:12:41.246Z,5.07
2023-11-13T05:15:10.915Z,4.95
2023-11-13T05:17:39.916Z,4.85
2023-11-13T05:20:09.210Z,5.20
2023-11-13T05:22:39.813Z,5.18
2023-11-13T05:25:09.574Z,5.30
2023-11-13T05:27:39.924Z,5.15
2023-11-13T05:30:09.597Z,5.10
2023-11-13T05:32:39.184Z,4.45
2023-11-13T05:35:08.256Z,5.03
2023-11-13T05:37:37.328Z,5.05
2023-11-13T05:40:07.072Z,4.97
2023-11-13T05:42:40.594Z,4.68
2023-11-13T05:45:11.022Z,5.15
2023-11-13T05:47:40.109Z,4.70
2023-11-13T05:50:09.944Z,4.82
2023-11-13T05:52:39.124Z,4.50
2023-11-13T05:55:10.035Z,5.50
2023-11-13T05:57:39.276Z,4.60
2023-11-13T06:00:08.619Z,4.63
2023-11-13T06:02:41.820Z,4.95
2023-11-13T06:05:11.073Z,4.50
2023-11-13T06:07:40.187Z,4.60
2023-11-13T06:10:11.717Z,4.40
2023-11-13T06:12:40.992Z,4.90
2023-11-13T06:15:14.614Z,4.55
2023-11-13T06:17:45.622Z,5.25
2023-11-13T06:20:15.329Z,4.70
2023-11-13T06:22:45.039Z,4.32
2023-11-13T06:25:14.050Z,4.90
2023-11-13T06:27:43.394Z,4.72
2023-11-13T06:30:14.258Z,4.88
2023-11-13T06:32:44.987Z,4.30
2023-11-13T06:35:13.730Z,4.75
2023-11-13T06:37:43.609Z,4.18
2023-11-13T06:40:12.875Z,5.25
2023-11-13T06:42:42.098Z,4.55
2023-11-13T06:45:13.504Z,4.10
2023-11-13T06:47:43.087Z,4.18
2023-11-13T06:50:12.060Z,4.25
2023-11-13T06:52:41.788Z,3.92
2023-11-13T06:55:17.571Z,4.57
2023-11-13T06:57:46.735Z,4.18
2023-11-13T07:00:18.238Z,4.55
2023-11-13T07:02:49.049Z,4.25
2023-11-13T07:05:17.975Z,4.07
2023-11-13T07:07:49.173Z,4.50
2023-11-13T07:10:20.275Z,4.10
2023-11-13T07:12:50.840Z,4.10
2023-11-13T11:14:19.020Z,3.28
2023-11-13T11:17:10.555Z,4.00
2023-11-13T11:19:43.536Z,3.30
2023-11-13T11:22:32.738Z,3.20
2023-11-13T11:25:36.300Z,3.53
2023-11-13T11:28:06.658Z,3.05
2023-11-13T11:30:39.438Z,3.70
2023-11-13T11:35:44.159Z,2.92
2023-11-13T11:38:23.959Z,4.07
2023-11-13T11:40:53.204Z,4.03
2023-11-13T11:43:32.679Z,3.22
2023-11-13T11:46:04.136Z,3.17
2023-11-13T11:48:34.481Z,3.40
2023-11-13T11:51:37.330Z,3.30
2023-11-13T11:54:07.922Z,3.30
2023-11-13T11:56:36.621Z,3.78
2023-11-13T11:59:05.711Z,3.83
2023-11-13T12:01:34.438Z,3.70
2023-11-13T12:04:03.677Z,3.85
2023-11-13T12:06:33.180Z,4.13
2023-11-13T12:09:04.848Z,3.72
2023-11-13T12:11:34.040Z,4.43
2023-11-13T12:14:04.222Z,4.25
2023-11-13T12:16:33.474Z,4.32
2023-11-13T12:19:02.524Z,3.75
2023-11-13T12:21:31.927Z,4.32
2023-11-13T12:24:02.099Z,4.22
2023-11-13T12:26:30.890Z,4.95
2023-11-13T12:29:00.285Z,5.72
2023-11-13T12:31:29.112Z,5.13
2023-11-13T12:33:58.158Z,4.70
2023-11-13T12:36:27.237Z,4.50
2023-11-13T12:38:57.459Z,5.15
2023-11-13T12:41:26.203Z,4.45
2023-11-13T12:43:55.177Z,4.72
2023-11-13T12:46:24.684Z,4.03
2023-11-13T12:49:00.772Z,4.35
2023-11-13T12:51:30.840Z,3.85
2023-11-13T12:54:00.805Z,3.80
2023-11-13T12:56:32.593Z,3.90
2023-11-13T12:59:03.964Z,3.45
2023-11-13T13:01:33.766Z,3.42
2023-11-13T13:04:06.340Z,3.65
2023-11-13T13:06:43.128Z,3.87
2023-11-13T13:09:13.361Z,3.60
2023-11-13T13:11:46.003Z,3.58
2023-11-13T13:16:55.227Z,4.00
2023-11-13T13:19:26.656Z,4.15
2023-11-13T13:21:55.547Z,3.40
2023-11-13T13:24:27.778Z,3.47
2023-11-13T13:26:59.784Z,3.70
2023-11-13T13:29:28.768Z,3.63
2023-11-13T13:31:57.469Z,3.25
2023-11-13T13:34:26.524Z,3.25
2023-11-13T13:36:55.801Z,3.40
2023-11-13T13:39:25.758Z,3.90
2023-11-13T13:41:54.454Z,3.72
2023-11-13T13:44:23.546Z,3.75
2023-11-13T13:46:52.416Z,3.47
2023-11-13T13:49:22.983Z,3.20
2023-11-13T13:51:51.583Z,3.50
2023-11-13T13:54:20.512Z,4.05
2023-11-13T13:56:49.176Z,3.85
2023-11-13T13:59:21.808Z,2.97
2023-11-13T14:01:50.589Z,3.53
2023-11-13T14:04:19.713Z,3.72
2023-11-13T14:06:48.313Z,3.22
2023-11-13T14:09:18.306Z,3.08
2023-11-13T14:11:47.482Z,3.00
2023-11-13T14:14:17.306Z,3.10
2023-11-13T14:16:51.712Z,3.33
2023-11-13T14:19:21.963Z,3.25
2023-11-13T14:21:50.695Z,3.95
2023-11-13T14:24:22.037Z,3.20
2023-11-13T14:26:51.935Z,3.35
2023-11-13T14:29:21.128Z,2.63
2023-11-13T14:31:50.325Z,3.75
2023-11-13T14:34:20.050Z,4.25
2023-11-13T14:36:49.474Z,3.17
2023-11-13T14:39:22.311Z,3.00
2023-11-13T14:41:50.925Z,3.58
2023-11-13T14:44:19.866Z,3.13
2023-11-13T14:46:48.570Z,3.67
2023-11-13T14:49:17.631Z,3.25
2023-11-13T14:51:46.651Z,3.10
2023-11-13T14:54:15.608Z,3.58
2023-11-13T14:56:44.363Z,3.10
2023-11-13T14:59:14.358Z,3.08
2023-11-13T15:01:43.233Z,3.20
2023-11-13T15:04:12.340Z,3.58
2023-11-13T15:06:41.657Z,3.25
2023-11-13T15:09:11.693Z,3.17
2023-11-13T15:11:40.368Z,3.50
2023-11-13T15:14:38.591Z,2.78
2023-11-13T15:17:07.650Z,3.35
2023-11-13T15:19:37.174Z,2.90
2023-11-13T15:22:06.214Z,2.97
2023-11-13T15:24:35.268Z,2.58
2023-11-13T15:27:06.251Z,3.17
2023-11-13T15:29:35.512Z,2.83
2023-11-13T15:32:07.702Z,3.28
2023-11-13T15:34:42.693Z,3.30
2023-11-13T15:37:12.399Z,3.38
2023-11-13T15:39:41.602Z,3.30
2023-11-13T15:42:13.703Z,3.78
2023-11-13T15:44:43.728Z,3.05
2023-11-13T15:47:12.565Z,2.97
2023-11-13T15:49:42.451Z,2.97
2023-11-13T15:52:13.237Z,3.42
2023-11-13T15:54:42.437Z,3.45
2023-11-13T15:57:11.331Z,3.40
2023-11-13T15:59:40.530Z,2.97
2023-11-13T16:02:09.331Z,3.30
2023-11-13T16:04:38.502Z,4.28
2023-11-13T16:07:08.177Z,3.35
2023-11-13T16:09:37.469Z,3.38
2023-11-13T16:12:06.629Z,3.22
2023-11-13T16:14:35.828Z,2.78
2023-11-13T16:17:05.138Z,2.88
2023-11-13T16:19:36.262Z,2.65
2023-11-13T16:22:05.038Z,3.35
2023-11-13T16:24:34.110Z,3.45
2023-11-13T16:27:04.194Z,2.97
2023-11-13T16:29:33.207Z,2.60
2023-11-13T16:32:02.210Z,2.40
2023-11-13T16:34:31.400Z,3.53
2023-11-13T16:37:01.845Z,2.75
2023-11-13T16:39:30.854Z,2.90
2023-11-13T16:42:00.058Z,2.92
2023-11-13T16:44:29.142Z,3.10
2023-11-13T16:46:57.877Z,3.50
2023-11-13T16:49:26.542Z,3.10
2023-11-13T16:51:55.598Z,3.35
2023-11-13T16:54:27.459Z,2.97
2023-11-13T16:56:58.207Z,3.33
2023-11-13T16:59:27.104Z,2.75
2023-11-13T17:01:56.268Z,3.08
2023-11-13T17:04:25.020Z,2.67
2023-11-13T17:06:54.052Z,2.80
2023-11-13T17:09:26.885Z,3.13
2023-11-13T17:11:55.871Z,3.28
2023-11-13T17:14:25.033Z,3.05
2023-11-13T17:16:54.467Z,2.53
2023-11-13T17:19:23.429Z,3.10
2023-11-13T17:21:52.433Z,2.80
2023-11-13T17:24:22.134Z,3.90
2023-11-13T17:26:51.115Z,3.15
2023-11-13T17:29:19.791Z,3.00
2023-11-13T17:31:48.952Z,3.30
2023-11-13T17:34:17.712Z,2.97
2023-11-13T17:36:48.769Z,3.20
2023-11-13T17:39:17.469Z,3.33
2023-11-13T17:41:47.057Z,2.60
2023-11-13T17:44:15.924Z,3.13
2023-11-13T17:46:45.068Z,3.28
2023-11-13T17:49:13.979Z,3.20
2023-11-13T17:51:43.842Z,3.88
2023-11-13T17:54:15.069Z,3.40
2023-11-13T17:56:48.971Z,2.92
2023-11-13T17:59:17.691Z,2.92
2023-11-13T18:01:48.589Z,3.40
2023-11-13T18:04:17.423Z,4.03
2023-11-13T18:06:46.481Z,3.83
2023-11-13T18:09:15.197Z,4.00
2023-11-13T18:11:44.999Z,3.70
2023-11-13T18:14:13.771Z,3.38
2023-11-13T18:16:42.906Z,3.35
2023-11-13T18:19:12.380Z,3.47
2023-11-13T18:21:41.733Z,3.58
2023-11-13T18:24:10.943Z,4.28
2023-11-13T18:26:40.154Z,3.17
2023-11-13T18:29:08.974Z,4.30
2023-11-13T18:31:38.108Z,3.58
2023-11-13T18:34:07.081Z,5.18
2023-11-13T18:36:36.191Z,3.45
2023-11-13T18:39:06.581Z,4.25
2023-11-13T18:41:35.547Z,3.80
2023-11-13T18:44:04.932Z,4.60
2023-11-13T18:46:33.939Z,4.00
2023-11-13T18:49:02.660Z,4.95
2023-11-13T18:51:31.574Z,3.95
2023-11-13T18:54:01.315Z,4.20
2023-11-13T18:56:30.402Z,3.97
2023-11-13T18:58:59.160Z,4.32
2023-11-13T19:01:28.465Z,4.03
2023-11-13T19:03:57.532Z,4.60
2023-11-13T19:06:26.568Z,5.07
2023-11-13T19:08:55.426Z,4.35
2023-11-13T19:11:24.443Z,4.18
2023-11-13T19:13:54.575Z,3.80
2023-11-13T19:16:23.705Z,4.43
2023-11-13T19:18:52.910Z,3.70
2023-11-13T19:21:26.838Z,4.72
2023-11-13T19:23:56.436Z,4.03
2023-11-13T19:26:25.659Z,5.18
2023-11-13T19:28:54.460Z,4.65
2023-11-13T19:31:24.653Z,4.80
2023-11-13T19:33:56.346Z,4.45
2023-11-13T19:36:25.314Z,5.70
2023-11-13T19:38:54.014Z,4.97
2023-11-13T19:41:26.783Z,5.47
2023-11-13T19:43:55.931Z,5.13
2023-11-13T19:46:26.376Z,4.47
2023-11-13T19:48:55.059Z,4.75
2023-11-13T19:51:24.088Z,4.38
2023-11-13T19:53:53.021Z,5.70
2023-11-13T19:56:22.088Z,5.30
2023-11-13T19:58:51.938Z,4.65
2023-11-13T20:01:21.860Z,5.60
2023-11-13T20:03:53.026Z,4.25
2023-11-13T20:06:23.882Z,4.70
2023-11-13T20:08:53.487Z,4.78
2023-11-13T20:11:23.801Z,4.63
2023-11-13T20:13:52.722Z,4.55
2023-11-13T20:16:21.777Z,5.00
2023-11-13T20:18:51.539Z,5.47
2023-11-13T20:21:20.509Z,5.60
2023-11-13T20:23:49.099Z,5.40
2023-11-13T20:26:18.029Z,5.13
2023-11-13T20:28:47.363Z,5.97
2023-11-13T20:31:16.353Z,5.75
2023-11-13T20:33:47.501Z,5.60
2023-11-13T20:36:16.476Z,6.82
2023-11-13T20:38:45.190Z,5.70
2023-11-13T20:41:14.102Z,5.55
2023-11-13T20:43:42.725Z,6.30
2023-11-13T20:46:11.681Z,5.93
2023-11-13T20:48:41.022Z,6.25
2023-11-13T20:51:10.198Z,5.57
2023-11-13T20:53:38.781Z,5.57
2023-11-13T20:56:08.512Z,5.53
2023-11-13T20:58:37.229Z,6.53
2023-11-13T21:01:06.565Z,6.50
2023-11-13T21:03:35.203Z,6.15
2023-11-13T21:06:07.980Z,6.63
2023-11-13T21:08:36.985Z,5.82
2023-11-13T21:11:06.669Z,6.20
2023-11-13T21:13:35.601Z,6.35
2023-11-13T21:16:06.239Z,6.05
2023-11-13T21:18:35.027Z,6.55
2023-11-13T21:21:04.184Z,6.13
2023-11-13T21:23:33.245Z,6.28
2023-11-13T21:26:04.032Z,6.15
2023-11-13T21:28:35.009Z,6.00
2023-11-13T21:31:04.126Z,5.85
2023-11-13T21:33:33.197Z,6.65
2023-11-13T21:36:02.364Z,7.18
2023-11-13T21:38:31.229Z,6.60
2023-11-13T21:41:00.336Z,6.60
2023-11-13T21:43:31.235Z,6.35
2023-11-13T21:46:00.297Z,6.43
2023-11-13T21:48:29.147Z,6.55
2023-11-13T21:50:58.339Z,6.82
2023-11-13T21:53:27.170Z,7.53
2023-11-13T21:55:56.459Z,7.40
2023-11-13T21:58:25.497Z,7.03
2023-11-13T22:00:58.080Z,5.80
2023-11-13T22:03:27.501Z,7.57
2023-11-13T22:05:58.746Z,7.05
2023-11-13T22:08:27.599Z,6.43
2023-11-13T22:10:57.093Z,7.13
2023-11-13T22:13:27.174Z,6.32
2023-11-13T22:15:57.137Z,6.40
2023-11-13T22:18:26.157Z,5.75
2023-11-13T22:21:00.062Z,6.72
2023-11-13T22:23:31.272Z,6.47
2023-11-13T22:26:00.465Z,6.57
2023-11-13T22:28:29.377Z,7.07
2023-11-13T22:30:58.658Z,6.90
2023-11-13T22:33:27.613Z,6.93
2023-11-13T22:35:56.798Z,6.53
2023-11-13T22:38:25.622Z,6.88
2023-11-13T22:40:54.866Z,5.90
2023-11-13T22:43:24.716Z,6.50
2023-11-13T22:45:53.984Z,6.20
2023-11-13T22:48:22.793Z,6.25
2023-11-13T22:50:53.192Z,6.57
2023-11-13T22:53:22.567Z,6.97
2023-11-13T22:55:51.860Z,6.13
2023-11-13T22:58:20.584Z,6.40
2023-11-13T23:00:53.061Z,7.50
2023-11-13T23:03:22.457Z,6.53
2023-11-13T23:05:51.813Z,6.53
2023-11-13T23:08:20.423Z,6.57
2023-11-13T23:10:50.037Z,5.55
2023-11-13T23:13:19.101Z,6.05
2023-11-13T23:15:48.096Z,6.15
2023-11-13T23:18:16.758Z,5.80
2023-11-13T23:20:45.809Z,6.75
2023-11-13T23:23:14.548Z,6.22
2023-11-13T23:25:43.541Z,5.72
2023-11-13T23:28:12.755Z,6.07
2023-11-13T23:30:42.414Z,7.38
2023-11-13T23:33:13.473Z,6.03
2023-11-13T23:35:42.584Z,6.38
2023-11-13T23:38:11.393Z,5.78
2023-11-13T23:40:40.461Z,6.32
2023-11-13T23:43:10.312Z,5.88
2023-11-13T23:45:40.671Z,6.05
2023-11-13T23:48:10.653Z,5.85
2023-11-13T23:50:42.036Z,6.20
2023-11-13T23:53:11.510Z,6.43
2023-11-13T23:55:43.833Z,6.25
2023-11-13T23:58:12.622Z,5.93
